Historyczne dane pomiarowe

Dodano dane terminowe – wersja testowa.

Dane z okresu 1951-2019

Wersja bazy: 1.34 [2019-03-16, lista zmian], aktualizacja planowana na 2019-04-15

Dane meteo z obszaru Polski uzyskane na podstawie danych udostępnionych przez Instytut Meteorologii i Gospodarki Wodnej – Państwowy Instytut Badawczy.

 

Wybierz Datę:    

       

TemperaturaWilgotnośćWiatrCiśnienieOpadyŚniegCzas trwania zjawisk
 Stacja t tx tn tng RH VA  wxwx mslp ppp RRR   cm mm wxwxwxwxwxwxwx
1961-08-14 15.3 20.8 7.2--- 7.3 0.3---- 0.0------------
1961-08-13 13.5 18.5 11.2--- 4.3 1.3---- 0.0------------
1961-08-12 17.4 20.6 14.2--- 8.0 1.0---- 9.3------------
1961-08-11 18.4 21.9 17.0--- 6.7 1.7---- 46.2------------
1961-08-10 22.4 29.3 17.2--- 4.7 1.3---- 33.3------------
1961-08-09 21.5 27.9 15.8--- 6.7 0.7---- 2.1------------
1961-08-08 19.0 24.0 13.2--- 5.3 1.0---- 0.0------------
1961-08-07 18.6 24.4 16.8--- 8.0 0.3---- 4.3------------
1961-08-06 24.7 32.1 13.7--- 2.7 1.3---- 0.9------------
1961-08-05 19.5 25.9 15.3--- 2.3 1.3---- 0.0------------
1961-08-04 16.2 21.0 7.3--- 6.7 1.3---- 0.0------------
1961-08-03 14.9 19.4 11.8--- 7.7 1.0---- 0.1------------
1961-08-02 17.4 26.6 9.4--- 5.0 1.0---- 3.0------------
1961-08-01 16.3 22.3 11.1--- 3.7 1.7---- 0.0------------
1961-07-31 13.7 14.9 11.9--- 8.0 3.7---- 4.7------------
1961-07-30 13.4 16.4 10.4--- 8.0 1.7---- 0.1------------
1961-07-29 14.1 18.7 11.6--- 7.0 2.0---- 0.0------------
1961-07-28 15.2 19.9 13.3--- 8.0 0.7---- 25.5------------
1961-07-27 18.0 25.9 13.7--- 8.0 2.3---- 13.6------------
1961-07-26 18.4 24.9 8.3--- 3.3 2.0---- 0.0------------
1961-07-25 13.8 17.9 11.4--- 5.7 0.7---- 0.0------------
1961-07-24 14.7 17.3 11.1--- 8.0 2.3---- 0.0------------
1961-07-23 15.6 18.4 11.2--- 6.0 2.3---- 0.0------------
1961-07-22 14.9 18.5 13.1--- 8.0 2.0---- 1.6------------
1961-07-21 15.3 17.9 13.4--- 8.0 2.3---- 0.4------------
1961-07-20 15.1 20.7 9.1--- 7.3 2.0---- 1.0------------
1961-07-19 15.1 20.2 12.6--- 6.7 0.7---- 0.8------------
1961-07-18 15.8 20.7 11.1--- 8.0 1.7---- 0.0------------
1961-07-17 15.4 18.9 10.6--- 5.3 3.0---- 10.6------------
1961-07-16 16.8 23.1 13.1--- 6.3 1.3---- 0.0------------
1961-07-15 19.8 25.5 13.2--- 6.0 1.0---- 18.0------------
1961-07-14 16.0 21.4 12.9--- 4.3 2.0---- 1.0------------
1961-07-13 19.1 26.3 14.5--- 5.3 3.0---- 4.6------------
1961-07-12 22.3 29.7 14.4--- 1.0 0.3---- 0.0------------
1961-07-11 17.3 23.4 6.4--- 7.0 1.0---- 1.5------------
1961-07-10 14.0 18.5 9.9--- 4.0 2.0---- 0.8------------
1961-07-09 14.3 18.6 9.5--- 5.7 1.3---- 3.6------------
1961-07-08 16.2 22.9 5.9--- 2.0 0.3---- 0.0------------
1961-07-07 13.4 18.4 8.0--- 4.0 1.0---- 0.0------------
1961-07-06 13.0 16.6 7.9--- 7.3 2.3---- 0.7------------
1961-07-05 14.4 19.3 12.4--- 3.3 3.3---- 2.7------------
1961-07-04 20.1 29.3 13.7--- 5.0 2.0---- 0.0------------
1961-07-03 25.2 33.1 12.9--- 1.0 1.7---- 0.0------------
1961-07-02 22.7 31.3 13.2--- 0.0 0.3---- 0.0------------
1961-07-01 21.9 29.4 11.9--- 0.0 0.3---- 0.0------------
1961-06-30 19.7 26.5 9.8--- 0.3 0.3---- 0.0------------
1961-06-29 17.0 22.4 9.9--- 1.7 1.3---- 0.0------------
1961-06-28 14.9 21.5 13.0--- 4.3 2.7---- 0.0------------
1961-06-27 22.6 29.4 16.6--- 5.3 1.3---- 6.5------------
1961-06-26 21.8 28.1 15.5--- 4.0 0.7---- 0.2------------
1961-06-25 21.7 29.9 12.2--- 0.0 0.3---- 0.0------------
1961-06-24 19.5 25.4 12.2--- 2.7 1.7---- 0.0------------
1961-06-23 18.4 23.0 14.6--- 5.3 2.0---- 0.0------------
1961-06-22 19.6 26.6 7.4--- 5.0 2.0---- 13.0------------
1961-06-21 16.7 25.0 6.9--- 1.3 2.0---- 0.0------------
1961-06-20 16.0 21.0 8.8--- 1.3 1.3---- 0.0------------
1961-06-19 15.6 20.9 13.4--- 5.3 0.7---- 0.8------------
1961-06-18 20.8 27.4 10.1--- 0.0 0.7---- 0.0------------
1961-06-17 16.2 23.4 6.9--- 1.0 0.7---- 0.0------------
1961-06-16 14.4 19.9 5.6--- 3.3 1.3---- 0.0------------
283.4 ms

 

Źródłem pochodzenia danych jest Instytut Meteorologii i Gospodarki Wodnej – Państwowy Instytut Badawczy. Dane Instytutu Meteorologii i Gospodarki Wodnej – Państwowego Instytutu Badawczego zostały przetworzone.

Dane źródłowe można odnaleźć na stronie https://dane.imgw.pl